createdAt,value
2023-03-29T00:00:42.325Z,84.73
2023-03-29T00:05:45.877Z,84.94
2023-03-29T00:10:52.089Z,84.83
2023-03-29T00:15:56.312Z,84.77
2023-03-29T00:21:01.227Z,84.53
2023-03-29T00:26:08.312Z,84.05
2023-03-29T00:31:13.903Z,84.76
2023-03-29T00:36:17.893Z,84.07
2023-03-29T00:41:22.839Z,85.22
2023-03-29T00:46:27.391Z,84.23
2023-03-29T00:51:35.535Z,85.62
2023-03-29T00:56:42.400Z,85.09
2023-03-29T01:01:50.613Z,85.76
2023-03-29T01:06:58.314Z,85.06
2023-03-29T01:12:09.761Z,84.95
2023-03-29T01:17:13.131Z,84.68
2023-03-29T01:22:28.528Z,85.76
2023-03-29T01:27:56.096Z,85.31
2023-03-29T01:33:03.930Z,84.37
2023-03-29T01:38:11.139Z,85.85
2023-03-29T01:43:28.292Z,84.66
2023-03-29T01:48:35.628Z,85.53
2023-03-29T01:53:45.495Z,85.13
2023-03-29T01:58:53.912Z,85.03
2023-03-29T02:04:04.268Z,85.06
2023-03-29T02:09:08.456Z,84.75
2023-03-29T02:14:14.016Z,85.25
2023-03-29T02:19:18.867Z,84.30
2023-03-29T02:24:26.332Z,84.34
2023-03-29T02:29:31.217Z,84.24
2023-03-29T02:34:37.778Z,83.71
2023-03-29T02:39:42.522Z,84.45
2023-03-29T02:44:51.343Z,83.51
2023-03-29T02:49:55.051Z,84.37
2023-03-29T02:55:00.529Z,82.92
2023-03-29T03:00:09.631Z,83.00
2023-03-29T03:05:13.339Z,82.82
2023-03-29T03:10:19.645Z,83.01
2023-03-29T03:15:24.497Z,82.11
2023-03-29T03:20:27.901Z,81.84
2023-03-29T03:25:31.801Z,81.36
2023-03-29T03:30:36.723Z,80.97
2023-03-29T03:35:40.353Z,81.65
2023-03-29T03:40:44.072Z,81.12
2023-03-29T03:45:49.161Z,80.49
2023-03-29T03:50:55.078Z,80.78
2023-03-29T03:55:58.549Z,80.23
2023-03-29T04:01:04.357Z,79.86
2023-03-29T04:06:08.182Z,79.46
2023-03-29T04:11:12.016Z,78.44
2023-03-29T04:16:16.992Z,77.84
2023-03-29T04:21:21.332Z,77.75
2023-03-29T04:26:25.017Z,77.32
2023-03-29T04:31:29.873Z,77.37
2023-03-29T04:36:33.367Z,76.88
2023-03-29T04:41:47.417Z,75.60
2023-03-29T04:46:52.423Z,74.78
2023-03-29T04:51:56.099Z,74.36
2023-03-29T04:56:59.470Z,74.27
2023-03-29T05:02:05.130Z,73.68
2023-03-29T05:07:08.791Z,73.30
2023-03-29T05:12:12.306Z,72.75
2023-03-29T05:17:17.218Z,72.33
2023-03-29T05:22:21.744Z,70.71
2023-03-29T05:27:25.635Z,69.94
2023-03-29T05:32:30.704Z,69.21
2023-03-29T05:37:34.856Z,69.60
2023-03-29T05:42:39.059Z,68.64
2023-03-29T05:47:44.786Z,68.48
2023-03-29T05:52:48.176Z,68.23
2023-03-29T05:57:51.702Z,67.95
2023-03-29T06:03:03.688Z,67.71
2023-03-29T06:08:13.520Z,67.64
2023-03-29T06:13:17.903Z,66.88
2023-03-29T06:18:22.681Z,66.20
2023-03-29T06:23:26.221Z,66.13
2023-03-29T06:28:30.076Z,66.87
2023-03-29T06:33:37.284Z,69.00
2023-03-29T06:38:41.788Z,70.54
2023-03-29T06:43:45.480Z,70.11
2023-03-29T06:48:50.470Z,68.48
2023-03-29T06:53:54.099Z,69.08
2023-03-29T06:58:57.581Z,69.70
2023-03-29T07:04:05.004Z,70.36
2023-03-29T07:09:09.159Z,71.30
2023-03-29T07:14:12.635Z,71.76
2023-03-29T07:19:17.556Z,71.32
2023-03-29T07:24:21.506Z,70.39
2023-03-29T07:29:24.971Z,69.19
2023-03-29T07:34:31.592Z,68.92
2023-03-29T07:39:35.505Z,68.01
2023-03-29T07:44:39.195Z,66.07
2023-03-29T07:49:44.044Z,66.67
2023-03-29T07:54:47.692Z,65.64
2023-03-29T07:59:51.108Z,66.30
2023-03-29T08:04:57.087Z,67.38
2023-03-29T08:10:01.268Z,67.20
2023-03-29T08:15:06.264Z,67.99
2023-03-29T08:20:15.209Z,68.17
2023-03-29T08:25:18.901Z,68.74
2023-03-29T08:30:22.508Z,70.66
2023-03-29T08:35:27.744Z,71.53
2023-03-29T08:40:31.898Z,72.13
2023-03-29T08:45:41.764Z,72.79
2023-03-29T08:50:52.827Z,72.66
2023-03-29T08:55:59.508Z,72.95
2023-03-29T09:01:06.243Z,73.32
2023-03-29T09:06:12.944Z,73.72
2023-03-29T09:11:30.558Z,75.89
2023-03-29T09:16:43.353Z,77.48
2023-03-29T09:21:52.838Z,78.72
2023-03-29T09:27:01.229Z,78.95
2023-03-29T09:32:14.265Z,79.34
2023-03-29T09:37:24.822Z,79.69
2023-03-29T09:42:31.292Z,79.50
2023-03-29T09:47:39.180Z,80.42
2023-03-29T09:52:44.222Z,80.11
2023-03-29T09:57:47.689Z,80.46
2023-03-29T10:02:55.432Z,80.90
2023-03-29T10:08:02.632Z,81.90
2023-03-29T10:13:12.329Z,82.85
2023-03-29T10:18:16.943Z,83.75
2023-03-29T10:23:22.035Z,84.33
2023-03-29T10:28:26.458Z,84.61
2023-03-29T10:33:33.093Z,85.52
2023-03-29T10:38:39.536Z,86.50
2023-03-29T10:43:46.354Z,87.94
2023-03-29T10:48:51.999Z,88.72
2023-03-29T10:53:58.926Z,89.04
2023-03-29T10:59:27.598Z,90.23
2023-03-29T11:04:42.266Z,91.53
2023-03-29T11:09:55.744Z,92.82
2023-03-29T11:15:11.225Z,93.03
2023-03-29T11:20:33.494Z,93.55
2023-03-29T11:25:50.639Z,94.43
2023-03-29T11:31:02.251Z,94.40
2023-03-29T11:36:13.858Z,93.75
2023-03-29T11:41:22.305Z,93.76
2023-03-29T11:46:31.654Z,94.00
2023-03-29T11:51:39.877Z,94.67
2023-03-29T11:56:48.867Z,94.49
2023-03-29T12:01:55.742Z,94.80
2023-03-29T12:07:10.199Z,95.29
2023-03-29T12:12:20.558Z,95.71
2023-03-29T12:17:29.635Z,96.24
2023-03-29T12:22:34.107Z,96.32
2023-03-29T12:27:46.926Z,97.23
2023-03-29T12:33:18.382Z,97.83
2023-03-29T12:38:24.238Z,97.86
2023-03-29T12:43:32.605Z,97.89
2023-03-29T12:48:38.944Z,97.21
2023-03-29T12:53:45.203Z,96.39
2023-03-29T12:59:07.142Z,95.03
2023-03-29T13:04:19.618Z,94.76
2023-03-29T13:09:24.805Z,95.21
2023-03-29T13:14:34.254Z,96.51
2023-03-29T13:19:44.715Z,96.58
2023-03-29T13:25:10.521Z,96.59
2023-03-29T13:30:35.317Z,96.39
2023-03-29T13:35:49.294Z,95.60
2023-03-29T13:41:04.926Z,94.90
2023-03-29T13:46:36.640Z,94.32
2023-03-29T13:51:42.571Z,94.72
2023-03-29T13:56:59.919Z,94.56
2023-03-29T14:02:07.607Z,95.00
2023-03-29T14:07:16.350Z,95.15
2023-03-29T14:12:20.168Z,95.44
2023-03-29T14:17:26.177Z,95.80
2023-03-29T14:22:32.470Z,96.59
2023-03-29T14:27:37.936Z,98.07
2023-03-29T14:32:42.822Z,99.56
2023-03-29T14:37:48.190Z,99.81
2023-03-29T14:42:52.323Z,99.97
2023-03-29T14:47:58.131Z,99.94
2023-03-29T14:53:03.382Z,100.00
2023-03-29T14:58:21.439Z,100.00
2023-03-29T15:03:27.433Z,100.00
2023-03-29T15:08:35.023Z,100.00
2023-03-29T15:13:42.962Z,100.00
2023-03-29T15:18:51.899Z,100.00
2023-03-29T15:23:57.882Z,100.00
2023-03-29T15:29:09.149Z,100.00
2023-03-29T15:34:15.631Z,100.00
2023-03-29T15:39:20.730Z,100.00
2023-03-29T15:44:27.817Z,100.00
2023-03-29T15:49:32.593Z,100.00
2023-03-29T15:54:37.333Z,100.00
2023-03-29T15:59:41.076Z,100.00
2023-03-29T16:04:46.034Z,100.00
2023-03-29T16:09:49.487Z,100.00
2023-03-29T16:14:53.371Z,100.00
2023-03-29T16:19:58.119Z,100.00
2023-03-29T16:25:01.449Z,100.00
2023-03-29T16:30:05.387Z,100.00
2023-03-29T16:35:17.180Z,100.00
2023-03-29T16:40:21.163Z,100.00
2023-03-29T16:45:24.741Z,100.00
2023-03-29T16:50:29.558Z,100.00
2023-03-29T16:55:33.086Z,100.00
2023-03-29T17:00:36.810Z,100.00
2023-03-29T17:05:41.857Z,100.00
2023-03-29T17:10:45.519Z,100.00
2023-03-29T17:15:52.215Z,100.00
2023-03-29T17:21:00.149Z,100.00
2023-03-29T17:26:04.087Z,100.00
2023-03-29T17:31:09.067Z,100.00
2023-03-29T17:36:14.415Z,100.00
2023-03-29T17:41:19.275Z,100.00
2023-03-29T17:46:23.175Z,100.00
2023-03-29T17:51:28.608Z,100.00
2023-03-29T17:56:32.166Z,100.00
2023-03-29T18:01:38.464Z,100.00
2023-03-29T18:06:43.925Z,100.00
2023-03-29T18:11:47.367Z,100.00
2023-03-29T18:16:50.988Z,100.00
2023-03-29T18:21:56.202Z,100.00
2023-03-29T18:26:59.612Z,100.00
2023-03-29T18:32:03.236Z,100.00
2023-03-29T18:37:14.540Z,100.00
2023-03-29T18:42:20.432Z,100.00
2023-03-29T18:47:24.051Z,100.00
2023-03-29T18:52:28.911Z,100.00
2023-03-29T18:57:32.420Z,100.00
2023-03-29T19:02:36.061Z,100.00
2023-03-29T19:07:41.075Z,100.00
2023-03-29T19:12:44.689Z,100.00
2023-03-29T19:17:48.150Z,100.00
2023-03-29T19:22:53.403Z,100.00
2023-03-29T19:27:58.871Z,100.00
2023-03-29T19:33:02.499Z,100.00
2023-03-29T19:38:07.755Z,100.00
2023-03-29T19:43:16.428Z,100.00
2023-03-29T19:48:23.684Z,100.00
2023-03-29T19:53:29.701Z,100.00
2023-03-29T19:58:33.279Z,100.00
2023-03-29T20:03:36.758Z,100.00
2023-03-29T20:08:41.828Z,100.00
2023-03-29T20:13:46.610Z,100.00
2023-03-29T20:18:49.939Z,100.00
2023-03-29T20:23:54.869Z,100.00
2023-03-29T20:28:58.308Z,100.00
2023-03-29T20:34:01.594Z,100.00
2023-03-29T20:39:06.529Z,100.00
2023-03-29T20:44:10.769Z,100.00
2023-03-29T20:49:14.295Z,100.00
2023-03-29T20:54:19.184Z,100.00
2023-03-29T20:59:22.878Z,100.00
2023-03-29T21:04:26.791Z,100.00
2023-03-29T21:09:34.334Z,100.00
2023-03-29T21:14:38.012Z,100.00
2023-03-29T21:19:41.715Z,100.00
2023-03-29T21:24:46.657Z,100.00
2023-03-29T21:29:50.438Z,100.00
2023-03-29T21:34:54.072Z,100.00
2023-03-29T21:39:59.000Z,100.00
2023-03-29T21:45:02.531Z,100.00
2023-03-29T21:50:08.260Z,100.00
2023-03-29T21:55:13.095Z,100.00
2023-03-29T22:00:18.053Z,100.00
2023-03-29T22:05:21.699Z,100.00
2023-03-29T22:10:27.437Z,100.00
2023-03-29T22:15:35.590Z,100.00
2023-03-29T22:20:40.274Z,100.00
2023-03-29T22:25:45.047Z,100.00
2023-03-29T22:30:48.499Z,100.00
2023-03-29T22:35:51.971Z,100.00
2023-03-29T22:40:57.270Z,100.00
2023-03-29T22:46:00.934Z,100.00
2023-03-29T22:51:05.650Z,100.00
2023-03-29T22:56:10.910Z,100.00
2023-03-29T23:01:14.738Z,100.00
2023-03-29T23:06:18.299Z,100.00
2023-03-29T23:11:23.246Z,100.00
2023-03-29T23:16:26.793Z,100.00
2023-03-29T23:21:30.276Z,100.00
2023-03-29T23:26:35.783Z,100.00
2023-03-29T23:31:39.353Z,100.00
2023-03-29T23:36:42.688Z,100.00
2023-03-29T23:41:47.457Z,100.00
2023-03-29T23:46:51.001Z,100.00
2023-03-29T23:51:54.389Z,100.00
2023-03-29T23:57:00.306Z,100.00
